sensor_id;sensor_type;location;lat;lon;timestamp;P1;durP1;ratioP1;P2;durP2;ratioP2
24301;SDS011;12421;49.732;20.078;2023-08-01T00:01:53;14.30;;;3.50;;
24301;SDS011;12421;49.732;20.078;2023-08-01T00:11:56;5.70;;;3.00;;
24301;SDS011;12421;49.732;20.078;2023-08-01T00:22:01;8.70;;;3.30;;
24301;SDS011;12421;49.732;20.078;2023-08-01T00:32:05;7.70;;;2.60;;
24301;SDS011;12421;49.732;20.078;2023-08-01T00:42:10;5.60;;;2.40;;
24301;SDS011;12421;49.732;20.078;2023-08-01T00:52:14;7.20;;;2.70;;
24301;SDS011;12421;49.732;20.078;2023-08-01T01:02:18;11.70;;;3.60;;
24301;SDS011;12421;49.732;20.078;2023-08-01T01:12:22;8.00;;;2.70;;
24301;SDS011;12421;49.732;20.078;2023-08-01T01:22:25;6.70;;;2.90;;
24301;SDS011;12421;49.732;20.078;2023-08-01T01:32:29;3.90;;;2.20;;
24301;SDS011;12421;49.732;20.078;2023-08-01T01:42:34;7.40;;;3.40;;
24301;SDS011;12421;49.732;20.078;2023-08-01T01:52:37;4.90;;;2.50;;
24301;SDS011;12421;49.732;20.078;2023-08-01T02:02:41;4.40;;;2.90;;
24301;SDS011;12421;49.732;20.078;2023-08-01T02:12:45;7.00;;;2.30;;
24301;SDS011;12421;49.732;20.078;2023-08-01T02:22:48;7.80;;;3.00;;
24301;SDS011;12421;49.732;20.078;2023-08-01T02:32:52;5.50;;;2.40;;
24301;SDS011;12421;49.732;20.078;2023-08-01T02:42:55;8.40;;;2.80;;
24301;SDS011;12421;49.732;20.078;2023-08-01T02:52:58;7.10;;;3.20;;
24301;SDS011;12421;49.732;20.078;2023-08-01T03:03:01;5.20;;;2.40;;
24301;SDS011;12421;49.732;20.078;2023-08-01T03:13:06;7.40;;;2.70;;
24301;SDS011;12421;49.732;20.078;2023-08-01T03:23:09;5.80;;;2.60;;
24301;SDS011;12421;49.732;20.078;2023-08-01T03:33:13;9.30;;;2.80;;
24301;SDS011;12421;49.732;20.078;2023-08-01T03:53:46;7.30;;;2.60;;
24301;SDS011;12421;49.732;20.078;2023-08-01T04:04:01;6.00;;;2.70;;
24301;SDS011;12421;49.732;20.078;2023-08-01T04:14:05;7.80;;;2.70;;
24301;SDS011;12421;49.732;20.078;2023-08-01T04:24:08;6.80;;;2.80;;
24301;SDS011;12421;49.732;20.078;2023-08-01T04:34:11;5.90;;;2.80;;
24301;SDS011;12421;49.732;20.078;2023-08-01T04:44:14;7.20;;;3.10;;
24301;SDS011;12421;49.732;20.078;2023-08-01T04:54:18;4.10;;;2.80;;
24301;SDS011;12421;49.732;20.078;2023-08-01T05:04:21;7.30;;;3.50;;
24301;SDS011;12421;49.732;20.078;2023-08-01T05:14:24;4.50;;;2.90;;
24301;SDS011;12421;49.732;20.078;2023-08-01T05:24:28;6.90;;;3.30;;
24301;SDS011;12421;49.732;20.078;2023-08-01T05:34:32;4.60;;;2.90;;
24301;SDS011;12421;49.732;20.078;2023-08-01T05:44:36;7.20;;;3.00;;
24301;SDS011;12421;49.732;20.078;2023-08-01T05:54:40;8.40;;;2.80;;
24301;SDS011;12421;49.732;20.078;2023-08-01T06:04:43;4.70;;;3.30;;
24301;SDS011;12421;49.732;20.078;2023-08-01T06:14:47;9.60;;;3.90;;
24301;SDS011;12421;49.732;20.078;2023-08-01T06:24:51;5.60;;;2.60;;
24301;SDS011;12421;49.732;20.078;2023-08-01T06:34:54;5.10;;;2.80;;
24301;SDS011;12421;49.732;20.078;2023-08-01T06:44:57;5.00;;;2.40;;
24301;SDS011;12421;49.732;20.078;2023-08-01T06:55:00;5.70;;;3.00;;
24301;SDS011;12421;49.732;20.078;2023-08-01T07:05:04;6.50;;;2.50;;
24301;SDS011;12421;49.732;20.078;2023-08-01T07:15:08;7.20;;;2.90;;
24301;SDS011;12421;49.732;20.078;2023-08-01T07:25:12;5.70;;;2.70;;
24301;SDS011;12421;49.732;20.078;2023-08-01T07:35:15;6.30;;;2.90;;
24301;SDS011;12421;49.732;20.078;2023-08-01T07:45:19;5.30;;;2.90;;
24301;SDS011;12421;49.732;20.078;2023-08-01T07:55:23;5.50;;;2.90;;
24301;SDS011;12421;49.732;20.078;2023-08-01T08:05:26;4.90;;;3.00;;
24301;SDS011;12421;49.732;20.078;2023-08-01T08:15:29;4.70;;;2.20;;
24301;SDS011;12421;49.732;20.078;2023-08-01T08:25:37;4.00;;;2.50;;
24301;SDS011;12421;49.732;20.078;2023-08-01T08:35:40;4.30;;;2.70;;
24301;SDS011;12421;49.732;20.078;2023-08-01T08:45:43;3.40;;;1.90;;
24301;SDS011;12421;49.732;20.078;2023-08-01T08:55:48;3.80;;;2.30;;
24301;SDS011;12421;49.732;20.078;2023-08-01T09:05:54;3.50;;;2.00;;
24301;SDS011;12421;49.732;20.078;2023-08-01T09:16:03;2.90;;;2.00;;
24301;SDS011;12421;49.732;20.078;2023-08-01T09:26:13;4.60;;;2.00;;
24301;SDS011;12421;49.732;20.078;2023-08-01T09:47:02;3.90;;;2.10;;
24301;SDS011;12421;49.732;20.078;2023-08-01T09:57:10;4.90;;;2.10;;
24301;SDS011;12421;49.732;20.078;2023-08-01T10:07:15;4.70;;;2.50;;
24301;SDS011;12421;49.732;20.078;2023-08-01T10:17:26;2.80;;;1.90;;
24301;SDS011;12421;49.732;20.078;2023-08-01T10:27:31;3.90;;;2.50;;
24301;SDS011;12421;49.732;20.078;2023-08-01T10:37:42;5.20;;;2.40;;
24301;SDS011;12421;49.732;20.078;2023-08-01T10:47:49;3.90;;;2.10;;
24301;SDS011;12421;49.732;20.078;2023-08-01T10:57:53;3.50;;;1.90;;
24301;SDS011;12421;49.732;20.078;2023-08-01T11:07:58;3.20;;;2.20;;
24301;SDS011;12421;49.732;20.078;2023-08-01T11:18:04;4.20;;;2.40;;
24301;SDS011;12421;49.732;20.078;2023-08-01T11:28:16;5.60;;;2.70;;
24301;SDS011;12421;49.732;20.078;2023-08-01T11:38:21;4.60;;;2.40;;
24301;SDS011;12421;49.732;20.078;2023-08-01T11:48:26;3.70;;;2.60;;
24301;SDS011;12421;49.732;20.078;2023-08-01T11:58:31;4.10;;;2.50;;
24301;SDS011;12421;49.732;20.078;2023-08-01T12:08:36;5.10;;;2.90;;
24301;SDS011;12421;49.732;20.078;2023-08-01T12:18:39;5.40;;;2.50;;
24301;SDS011;12421;49.732;20.078;2023-08-01T12:29:01;4.40;;;3.40;;
24301;SDS011;12421;49.732;20.078;2023-08-01T12:39:05;5.40;;;2.50;;
24301;SDS011;12421;49.732;20.078;2023-08-01T12:49:13;4.70;;;3.00;;
24301;SDS011;12421;49.732;20.078;2023-08-01T12:59:18;4.50;;;2.70;;
24301;SDS011;12421;49.732;20.078;2023-08-01T13:09:21;4.70;;;2.90;;
24301;SDS011;12421;49.732;20.078;2023-08-01T13:40:24;5.50;;;2.90;;
24301;SDS011;12421;49.732;20.078;2023-08-01T13:50:28;3.30;;;2.10;;
24301;SDS011;12421;49.732;20.078;2023-08-01T14:00:32;5.60;;;2.30;;
24301;SDS011;12421;49.732;20.078;2023-08-01T14:10:35;3.80;;;2.50;;
24301;SDS011;12421;49.732;20.078;2023-08-01T14:20:38;6.90;;;3.40;;
24301;SDS011;12421;49.732;20.078;2023-08-01T14:30:45;4.20;;;2.40;;
24301;SDS011;12421;49.732;20.078;2023-08-01T14:40:48;3.50;;;2.10;;
24301;SDS011;12421;49.732;20.078;2023-08-01T14:51:11;4.70;;;1.80;;
24301;SDS011;12421;49.732;20.078;2023-08-01T15:01:15;2.50;;;1.20;;
24301;SDS011;12421;49.732;20.078;2023-08-01T15:11:19;3.40;;;1.50;;
24301;SDS011;12421;49.732;20.078;2023-08-01T15:21:22;3.10;;;1.50;;
24301;SDS011;12421;49.732;20.078;2023-08-01T15:31:28;2.50;;;1.20;;
24301;SDS011;12421;49.732;20.078;2023-08-01T15:41:31;2.80;;;1.30;;
24301;SDS011;12421;49.732;20.078;2023-08-01T15:51:35;4.90;;;1.50;;
24301;SDS011;12421;49.732;20.078;2023-08-01T16:01:39;2.90;;;1.50;;
24301;SDS011;12421;49.732;20.078;2023-08-01T16:11:42;4.80;;;1.80;;
24301;SDS011;12421;49.732;20.078;2023-08-01T16:21:47;3.40;;;1.70;;
24301;SDS011;12421;49.732;20.078;2023-08-01T16:31:51;4.60;;;1.80;;
24301;SDS011;12421;49.732;20.078;2023-08-01T16:41:54;4.00;;;2.00;;
24301;SDS011;12421;49.732;20.078;2023-08-01T16:52:00;3.20;;;1.70;;
24301;SDS011;12421;49.732;20.078;2023-08-01T17:02:04;2.80;;;1.50;;
24301;SDS011;12421;49.732;20.078;2023-08-01T17:12:08;4.30;;;1.70;;
24301;SDS011;12421;49.732;20.078;2023-08-01T17:22:12;4.50;;;2.30;;
24301;SDS011;12421;49.732;20.078;2023-08-01T17:32:15;5.60;;;1.60;;
24301;SDS011;12421;49.732;20.078;2023-08-01T17:42:18;2.10;;;1.40;;
24301;SDS011;12421;49.732;20.078;2023-08-01T17:52:22;3.30;;;1.70;;
24301;SDS011;12421;49.732;20.078;2023-08-01T18:02:25;3.10;;;1.80;;
24301;SDS011;12421;49.732;20.078;2023-08-01T18:12:31;3.50;;;2.00;;
24301;SDS011;12421;49.732;20.078;2023-08-01T18:22:34;5.90;;;2.70;;
24301;SDS011;12421;49.732;20.078;2023-08-01T18:32:37;5.60;;;2.20;;
24301;SDS011;12421;49.732;20.078;2023-08-01T18:42:41;4.70;;;1.70;;
24301;SDS011;12421;49.732;20.078;2023-08-01T18:52:47;4.10;;;2.00;;
24301;SDS011;12421;49.732;20.078;2023-08-01T19:02:53;3.10;;;1.30;;
24301;SDS011;12421;49.732;20.078;2023-08-01T19:12:58;2.80;;;1.70;;
24301;SDS011;12421;49.732;20.078;2023-08-01T19:23:02;3.90;;;1.30;;
24301;SDS011;12421;49.732;20.078;2023-08-01T19:33:06;2.40;;;1.10;;
24301;SDS011;12421;49.732;20.078;2023-08-01T19:43:12;2.00;;;1.10;;
24301;SDS011;12421;49.732;20.078;2023-08-01T19:53:15;3.40;;;1.10;;
24301;SDS011;12421;49.732;20.078;2023-08-01T20:03:18;10.70;;;1.40;;
24301;SDS011;12421;49.732;20.078;2023-08-01T20:13:27;4.10;;;1.70;;
24301;SDS011;12421;49.732;20.078;2023-08-01T20:23:31;2.50;;;1.10;;
24301;SDS011;12421;49.732;20.078;2023-08-01T20:33:35;7.10;;;2.60;;
24301;SDS011;12421;49.732;20.078;2023-08-01T20:43:38;4.00;;;1.70;;
24301;SDS011;12421;49.732;20.078;2023-08-01T20:53:41;5.80;;;1.60;;
24301;SDS011;12421;49.732;20.078;2023-08-01T21:03:44;3.40;;;2.30;;
24301;SDS011;12421;49.732;20.078;2023-08-01T21:13:48;8.00;;;2.20;;
24301;SDS011;12421;49.732;20.078;2023-08-01T21:23:51;5.00;;;2.40;;
24301;SDS011;12421;49.732;20.078;2023-08-01T21:33:54;5.10;;;1.30;;
24301;SDS011;12421;49.732;20.078;2023-08-01T21:43:57;4.60;;;2.00;;
24301;SDS011;12421;49.732;20.078;2023-08-01T21:54:01;3.60;;;1.80;;
24301;SDS011;12421;49.732;20.078;2023-08-01T22:04:08;2.70;;;1.40;;
24301;SDS011;12421;49.732;20.078;2023-08-01T22:14:16;5.00;;;1.50;;
24301;SDS011;12421;49.732;20.078;2023-08-01T22:24:19;4.50;;;1.60;;
24301;SDS011;12421;49.732;20.078;2023-08-01T22:34:23;4.40;;;1.20;;
24301;SDS011;12421;49.732;20.078;2023-08-01T22:44:28;7.90;;;1.40;;
24301;SDS011;12421;49.732;20.078;2023-08-01T22:54:31;6.10;;;1.10;;
24301;SDS011;12421;49.732;20.078;2023-08-01T23:04:34;1.80;;;1.10;;
24301;SDS011;12421;49.732;20.078;2023-08-01T23:14:37;4.80;;;1.20;;
24301;SDS011;12421;49.732;20.078;2023-08-01T23:24:40;5.10;;;1.10;;
24301;SDS011;12421;49.732;20.078;2023-08-01T23:34:50;4.50;;;1.30;;
24301;SDS011;12421;49.732;20.078;2023-08-01T23:44:53;6.70;;;2.00;;
24301;SDS011;12421;49.732;20.078;2023-08-01T23:54:58;10.40;;;1.50;;
